createdAt,value
2019-01-27T00:00:03.095Z,6.05
2019-01-27T00:01:03.729Z,6.12
2019-01-27T00:02:03.352Z,6.12
2019-01-27T00:03:03.116Z,6.11
2019-01-27T00:04:02.937Z,6.11
2019-01-27T00:05:03.278Z,6.36
2019-01-27T00:06:02.794Z,6.36
2019-01-27T00:07:02.730Z,6.48
2019-01-27T00:08:02.852Z,6.37
2019-01-27T00:09:03.529Z,7.33
2019-01-27T00:10:03.204Z,7.33
2019-01-27T00:11:03.034Z,7.45
2019-01-27T00:12:02.945Z,6.35
2019-01-27T00:13:03.212Z,6.55
2019-01-27T00:14:02.956Z,6.55
2019-01-27T00:15:03.443Z,6.35
2019-01-27T00:16:03.221Z,6.57
2019-01-27T00:17:02.992Z,6.79
2019-01-27T00:18:02.937Z,6.43
2019-01-27T00:19:03.290Z,7.27
2019-01-27T00:20:01.920Z,6.42
2019-01-27T00:21:03.167Z,5.98
2019-01-27T00:22:02.843Z,5.98
2019-01-27T00:23:03.135Z,6.94
2019-01-27T00:24:02.828Z,6.66
2019-01-27T00:25:03.495Z,6.81
2019-01-27T00:26:03.243Z,6.81
2019-01-27T00:27:03.082Z,6.95
2019-01-27T00:28:03.606Z,6.95
2019-01-27T00:29:03.294Z,6.96
2019-01-27T00:30:03.370Z,6.96
2019-01-27T00:31:02.955Z,6.89
2019-01-27T00:32:02.803Z,6.89
2019-01-27T00:33:03.557Z,6.42
2019-01-27T00:34:02.959Z,6.69
2019-01-27T00:35:02.928Z,6.38
2019-01-27T00:36:02.686Z,6.49
2019-01-27T00:37:02.741Z,5.82
2019-01-27T00:38:03.008Z,6
2019-01-27T00:39:02.824Z,6.75
2019-01-27T00:40:03.584Z,6.46
2019-01-27T00:41:03.154Z,6.19
2019-01-27T00:42:03.125Z,6.19
2019-01-27T00:43:01.853Z,6.33
2019-01-27T00:44:03.135Z,6.33
2019-01-27T00:45:03.776Z,7.15
2019-01-27T00:46:03.623Z,7.15
2019-01-27T00:47:03.143Z,5.88
2019-01-27T00:48:03.435Z,6.15
2019-01-27T00:49:02.246Z,6.65
2019-01-27T00:50:03.058Z,6.65
2019-01-27T00:51:02.827Z,6.78
2019-01-27T00:52:03.650Z,6.78
2019-01-27T00:53:03.638Z,6.89
2019-01-27T00:54:03.374Z,6.89
2019-01-27T00:55:03.681Z,7.54
2019-01-27T00:56:03.494Z,7.54
2019-01-27T00:57:03.417Z,7.34
2019-01-27T00:58:02.921Z,7.34
2019-01-27T00:59:02.994Z,7.19
2019-01-27T01:00:02.980Z,7.19
2019-01-27T01:01:02.906Z,7.48
2019-01-27T01:02:02.701Z,7.39
2019-01-27T01:03:02.786Z,6.56
2019-01-27T01:04:02.613Z,7.8
2019-01-27T01:05:03.021Z,7.28
2019-01-27T01:06:03.050Z,7.28
2019-01-27T01:07:02.977Z,7.24
2019-01-27T01:08:01.954Z,7.56
2019-01-27T01:09:03.776Z,7.66
2019-01-27T01:10:03.649Z,7.66
2019-01-27T01:11:03.483Z,7.04
2019-01-27T01:12:03.197Z,6.78
2019-01-27T01:13:02.722Z,6.37
2019-01-27T01:14:02.910Z,6.37
2019-01-27T01:15:03.662Z,6.69
2019-01-27T01:16:03.390Z,6.69
2019-01-27T01:17:03.188Z,6.66
2019-01-27T01:18:02.761Z,6.64
2019-01-27T01:19:02.805Z,6.16
2019-01-27T01:20:03.805Z,6.16
2019-01-27T01:21:02.906Z,6.06
2019-01-27T01:22:02.765Z,6.06
2019-01-27T01:23:03.192Z,6.81
2019-01-27T01:24:03.304Z,6.81
2019-01-27T01:25:02.967Z,6.53
2019-01-27T01:26:02.890Z,6.06
2019-01-27T01:27:02.792Z,5.68
2019-01-27T01:28:03.670Z,6.89
2019-01-27T01:29:03.610Z,6.66
2019-01-27T01:30:03.363Z,6.05
2019-01-27T01:31:02.201Z,7.15
2019-01-27T01:32:03.329Z,6.69
2019-01-27T01:33:03.665Z,6.69
2019-01-27T01:34:03.731Z,6.69
2019-01-27T01:35:03.331Z,7
2019-01-27T01:36:02.905Z,7
2019-01-27T01:37:03.295Z,6.31
2019-01-27T01:38:02.973Z,6.31
2019-01-27T01:39:03.721Z,7.09
2019-01-27T01:40:03.731Z,6.56
2019-01-27T01:41:03.388Z,6.56
2019-01-27T01:42:03.205Z,7.07
2019-01-27T01:43:02.865Z,6.36
2019-01-27T01:44:02.811Z,7.64
2019-01-27T01:45:03.370Z,7.04
2019-01-27T01:46:02.993Z,7.04
2019-01-27T01:47:03.477Z,6.65
2019-01-27T01:48:03.267Z,6.65
2019-01-27T01:49:03.339Z,6.9
2019-01-27T01:50:03.170Z,6.9
2019-01-27T01:51:03.269Z,7.42
2019-01-27T01:52:02.989Z,7.09
2019-01-27T01:53:02.655Z,6.55
2019-01-27T01:54:03.347Z,5.96
2019-01-27T01:55:02.915Z,6.32
2019-01-27T01:56:02.079Z,6.66
2019-01-27T01:57:03.166Z,6.26
2019-01-27T01:58:02.048Z,7.15
2019-01-27T01:59:03.061Z,6.68
2019-01-27T02:00:03.143Z,7.88
2019-01-27T02:01:02.733Z,6.76
2019-01-27T02:02:03.341Z,6.76
2019-01-27T02:03:03.278Z,7.27
2019-01-27T02:04:03.783Z,6.89
2019-01-27T02:05:03.143Z,7.29
2019-01-27T02:06:03.427Z,7.6
2019-01-27T02:07:02.912Z,7.44
2019-01-27T02:08:02.775Z,6.99
2019-01-27T02:09:02.616Z,7.56
2019-01-27T02:10:02.899Z,6.71
2019-01-27T02:11:02.800Z,6.09
2019-01-27T02:12:03.469Z,6.09
2019-01-27T02:13:03.631Z,6.45
2019-01-27T02:14:02.766Z,6.45
2019-01-27T02:15:03.714Z,6.5
2019-01-27T02:16:03.507Z,6.83
2019-01-27T02:17:03.461Z,7.32
2019-01-27T02:18:02.314Z,6.63
2019-01-27T02:19:02.301Z,7.15
2019-01-27T02:20:03.205Z,6.63
2019-01-27T02:21:03.316Z,6.63
2019-01-27T02:22:03.347Z,7.04
2019-01-27T02:23:03.601Z,6.98
2019-01-27T02:24:03.255Z,6.98
2019-01-27T02:25:02.775Z,7.45
2019-01-27T02:26:02.787Z,7.45
2019-01-27T02:27:03.265Z,7.56
2019-01-27T02:28:03.337Z,7.96
2019-01-27T02:29:03.709Z,7.09
2019-01-27T02:30:03.294Z,7.09
2019-01-27T02:31:03.002Z,8.45
2019-01-27T02:32:02.928Z,8.45
2019-01-27T02:33:03.711Z,7.78
2019-01-27T02:34:03.321Z,6.48
2019-01-27T02:35:03.358Z,6.81
2019-01-27T02:36:02.782Z,6.6
2019-01-27T02:37:02.902Z,6.34
2019-01-27T02:38:03.359Z,6.34
2019-01-27T02:39:03.048Z,6.32
2019-01-27T02:40:02.504Z,7.65
2019-01-27T02:41:03.623Z,7.24
2019-01-27T02:42:03.564Z,6.38
2019-01-27T02:43:01.845Z,6.77
2019-01-27T02:44:03.692Z,6.88
2019-01-27T02:45:03.444Z,8.41
2019-01-27T02:46:03.196Z,6.28
2019-01-27T02:47:02.854Z,7.59
2019-01-27T02:48:03.063Z,7.75
2019-01-27T02:49:02.903Z,7.99
2019-01-27T02:50:03.117Z,7.99
2019-01-27T02:51:03.140Z,6.86
2019-01-27T02:52:03.220Z,7.12
2019-01-27T02:53:02.738Z,7.12
2019-01-27T02:54:03.697Z,7.83
2019-01-27T02:55:03.634Z,9.03
2019-01-27T02:56:03.352Z,9.03
2019-01-27T02:57:03.026Z,7.62
2019-01-27T02:58:03.620Z,7.58
2019-01-27T02:59:03.561Z,7.96
2019-01-27T03:00:03.597Z,7.96
2019-01-27T03:01:03.322Z,7.07
2019-01-27T03:02:03.491Z,8
2019-01-27T03:03:03.461Z,6.97
2019-01-27T03:04:02.889Z,7.62
2019-01-27T03:05:03.144Z,7.62
2019-01-27T03:06:02.858Z,7.62
2019-01-27T03:07:03.626Z,6.54
2019-01-27T03:08:01.942Z,7.04
2019-01-27T03:09:03.297Z,7.04
2019-01-27T03:10:03.002Z,7.04
2019-01-27T03:11:03.934Z,6.57
2019-01-27T03:12:02.971Z,6.57
2019-01-27T03:13:03.054Z,7.6
2019-01-27T03:14:03.456Z,7.6
2019-01-27T03:15:02.873Z,6.96
2019-01-27T03:16:03.108Z,7.63
2019-01-27T03:17:03.450Z,7.49
2019-01-27T03:18:03.145Z,7.83
2019-01-27T03:19:03.107Z,7.43
2019-01-27T03:20:03.695Z,8.02
2019-01-27T03:21:03.536Z,7.55
2019-01-27T03:22:03.366Z,7.66
2019-01-27T03:23:03.564Z,7.9
2019-01-27T03:24:03.247Z,7.9
2019-01-27T03:25:03.498Z,7.36
2019-01-27T03:26:03.104Z,7.48
2019-01-27T03:27:03.399Z,8.08
2019-01-27T03:28:03.266Z,8.08
2019-01-27T03:29:03.324Z,8.12
2019-01-27T03:30:02.653Z,7.21
2019-01-27T03:31:03.479Z,7.75
2019-01-27T03:32:02.938Z,7.92
2019-01-27T03:33:02.908Z,7.46
2019-01-27T03:34:03.618Z,7.42
2019-01-27T03:35:02.637Z,7.89
2019-01-27T03:36:02.443Z,7.49
2019-01-27T03:37:01.732Z,8.43
2019-01-27T03:38:02.905Z,7.71
2019-01-27T03:39:01.954Z,7.82
2019-01-27T03:40:03.429Z,8
2019-01-27T03:41:02.893Z,7.54
2019-01-27T03:42:03.245Z,7.54
2019-01-27T03:43:03.019Z,7.25
2019-01-27T03:44:03.430Z,7.64
2019-01-27T03:45:02.870Z,8.02
2019-01-27T03:46:03.415Z,8.02
2019-01-27T03:47:03.378Z,7.8
2019-01-27T03:48:03.132Z,7.8
2019-01-27T03:49:03.686Z,7.35
2019-01-27T03:50:03.425Z,7.21
2019-01-27T03:51:03.673Z,8.72
2019-01-27T03:52:03.154Z,8.72
2019-01-27T03:53:02.972Z,8.42
2019-01-27T03:54:02.847Z,7.93
2019-01-27T03:55:03.355Z,7.91
2019-01-27T03:56:03.215Z,9.04
2019-01-27T03:57:02.978Z,7.52
2019-01-27T03:58:03.185Z,7.83
2019-01-27T03:59:01.976Z,8.44
2019-01-27T04:00:02.992Z,8.44
2019-01-27T04:01:02.706Z,8.84
2019-01-27T04:02:03.613Z,8.84
2019-01-27T04:03:03.536Z,7.94
2019-01-27T04:04:02.624Z,8.18
2019-01-27T04:05:02.937Z,7.98
2019-01-27T04:06:02.982Z,8.63
2019-01-27T04:07:03.471Z,8.32
2019-01-27T04:08:02.979Z,8.58
2019-01-27T04:09:02.916Z,8
2019-01-27T04:10:02.784Z,8
2019-01-27T04:11:03.004Z,8.55
2019-01-27T04:12:03.816Z,8.55
2019-01-27T04:13:03.467Z,8.09
2019-01-27T04:14:03.104Z,8.32
2019-01-27T04:15:03.552Z,8.19
2019-01-27T04:16:03.147Z,7.75
2019-01-27T04:17:03.126Z,7.41
2019-01-27T04:18:03.547Z,8.15
2019-01-27T04:19:03.501Z,7.25
2019-01-27T04:20:03.617Z,7.25
2019-01-27T04:21:01.741Z,7.16
2019-01-27T04:22:01.658Z,7.76
2019-01-27T04:23:03.023Z,6.46
2019-01-27T04:24:03.095Z,6.62
2019-01-27T04:25:02.845Z,6.89
2019-01-27T04:26:03.408Z,6.79
2019-01-27T04:27:03.232Z,7.11
2019-01-27T04:28:03.618Z,7.11
2019-01-27T04:29:03.112Z,7.75
2019-01-27T04:30:03.478Z,6.84
2019-01-27T04:31:03.252Z,6.44
2019-01-27T04:32:03.099Z,6.3
2019-01-27T04:33:03.616Z,6.89
2019-01-27T04:34:03.378Z,6.89
2019-01-27T04:35:03.145Z,7.02
2019-01-27T04:36:03.043Z,7.02
2019-01-27T04:37:02.929Z,6.49
2019-01-27T04:38:03.507Z,6.09
2019-01-27T04:39:03.277Z,5.89
2019-01-27T04:40:03.325Z,5.89
2019-01-27T04:41:02.792Z,5.86
2019-01-27T04:42:03.293Z,6.26
2019-01-27T04:43:02.943Z,6.01
2019-01-27T04:44:02.182Z,5.61
2019-01-27T04:45:03.462Z,5.96
2019-01-27T04:46:01.753Z,6.04
2019-01-27T04:47:03.016Z,6.04
2019-01-27T04:48:02.791Z,6.34
2019-01-27T04:49:03.384Z,5.68
2019-01-27T04:50:03.150Z,5.68
2019-01-27T04:51:02.927Z,6.55
2019-01-27T04:52:03.382Z,6.55
2019-01-27T04:53:03.565Z,6.78
2019-01-27T04:54:02.870Z,6.78
2019-01-27T04:55:03.210Z,7.85
2019-01-27T04:56:03.154Z,7.25
2019-01-27T04:57:03.377Z,6.79
2019-01-27T04:58:03.417Z,6.79
2019-01-27T04:59:03.525Z,5.88
2019-01-27T05:00:03.396Z,5.88
2019-01-27T05:01:03.231Z,6.68
2019-01-27T05:02:03.200Z,6.68
2019-01-27T05:03:03.199Z,7.05
2019-01-27T05:04:03.120Z,7.05
2019-01-27T05:05:03.623Z,7.01
2019-01-27T05:06:03.250Z,7.01
2019-01-27T05:07:03.394Z,7.81
2019-01-27T05:08:02.962Z,7.85
2019-01-27T05:09:03.061Z,6.71
2019-01-27T05:10:02.758Z,6.59
2019-01-27T05:11:03.387Z,6.99
2019-01-27T05:12:03.563Z,6.99
2019-01-27T05:13:02.877Z,6.02
2019-01-27T05:14:03.239Z,7.25
2019-01-27T05:15:03.494Z,6.15
2019-01-27T05:16:03.153Z,5.73
2019-01-27T05:17:03.346Z,6.68
2019-01-27T05:18:02.894Z,6.52
2019-01-27T05:19:03.484Z,5.79
2019-01-27T05:20:03.830Z,5.8
2019-01-27T05:21:03.417Z,5.86
2019-01-27T05:22:03.325Z,5.86
2019-01-27T05:23:03.010Z,5.04
2019-01-27T05:24:02.731Z,5.35
2019-01-27T05:25:03.025Z,4.51
2019-01-27T05:26:03.791Z,4.51
2019-01-27T05:27:02.766Z,4.52
2019-01-27T05:28:03.718Z,4.52
2019-01-27T05:29:03.545Z,4.17
2019-01-27T05:30:03.217Z,4.01
2019-01-27T05:31:02.852Z,3.72
2019-01-27T05:32:02.695Z,3.65
2019-01-27T05:33:03.305Z,3.65
2019-01-27T05:34:03.504Z,4.18
2019-01-27T05:35:03.038Z,4.36
2019-01-27T05:36:03.627Z,4.36
2019-01-27T05:37:03.530Z,4.5
2019-01-27T05:38:02.908Z,4.28
2019-01-27T05:39:03.083Z,4.01
2019-01-27T05:40:02.524Z,4.01
2019-01-27T05:41:03.522Z,3.65
2019-01-27T05:42:03.263Z,3.65
2019-01-27T05:43:03.452Z,4.45
2019-01-27T05:44:03.313Z,4.45
2019-01-27T05:45:03.202Z,3.88
2019-01-27T05:46:03.033Z,3.88
2019-01-27T05:47:03.588Z,3.34
2019-01-27T05:48:02.655Z,3.34
2019-01-27T05:49:03.456Z,4.15
2019-01-27T05:50:03.154Z,4.15
2019-01-27T05:51:03.465Z,3.78
2019-01-27T05:52:03.306Z,3.78
2019-01-27T05:53:03.163Z,3.38
2019-01-27T05:54:02.529Z,4.04
2019-01-27T05:55:03.007Z,3.68
2019-01-27T05:56:03.248Z,4.08
2019-01-27T05:57:03.086Z,4.08
2019-01-27T05:58:02.800Z,3.65
2019-01-27T05:59:03.606Z,3.65
2019-01-27T06:00:02.983Z,3.47
2019-01-27T06:01:03.227Z,3.76
2019-01-27T06:02:02.620Z,3.09
2019-01-27T06:03:03.429Z,3.09
2019-01-27T06:04:02.842Z,3.62
2019-01-27T06:05:02.850Z,3.62
2019-01-27T06:06:03.434Z,4.06
2019-01-27T06:07:03.287Z,4.06
2019-01-27T06:08:02.612Z,5.45
2019-01-27T06:09:03.639Z,5.45
2019-01-27T06:10:03.297Z,5.6
2019-01-27T06:11:02.761Z,8.14
2019-01-27T06:12:03.021Z,8.74
2019-01-27T06:13:03.330Z,8.15
2019-01-27T06:14:02.187Z,7.44
2019-01-27T06:15:02.946Z,6.03
2019-01-27T06:16:02.077Z,22.78
2019-01-27T06:17:03.283Z,16.88
2019-01-27T06:18:03.262Z,9.15
2019-01-27T06:19:03.287Z,6.19
2019-01-27T06:20:03.213Z,4.89
2019-01-27T06:21:03.473Z,4.61
2019-01-27T06:22:02.963Z,3.9
2019-01-27T06:23:03.421Z,3.5
2019-01-27T06:24:03.017Z,3.5
2019-01-27T06:25:03.622Z,3.98
2019-01-27T06:26:03.262Z,3.92
2019-01-27T06:27:03.049Z,3.54
2019-01-27T06:28:03.723Z,3.54
2019-01-27T06:29:02.619Z,3.48
2019-01-27T06:30:03.948Z,3.48
2019-01-27T06:31:03.590Z,3.95
2019-01-27T06:32:03.335Z,3.91
2019-01-27T06:33:03.333Z,3.84
2019-01-27T06:34:03.120Z,4.11
2019-01-27T06:35:02.943Z,4.32
2019-01-27T06:36:02.887Z,4.32
2019-01-27T06:37:03.103Z,3.57
2019-01-27T06:38:02.038Z,4.14
2019-01-27T06:39:02.929Z,3.47
2019-01-27T06:40:03.607Z,3.87
2019-01-27T06:41:03.120Z,4.15
2019-01-27T06:42:02.963Z,3.95
2019-01-27T06:43:02.720Z,3.95
2019-01-27T06:44:02.829Z,3.08
2019-01-27T06:45:02.858Z,3.75
2019-01-27T06:46:03.068Z,4.32
2019-01-27T06:47:03.482Z,3.96
2019-01-27T06:48:03.310Z,3.96
2019-01-27T06:49:03.351Z,4.13
2019-01-27T06:50:03.305Z,4.25
2019-01-27T06:51:02.834Z,4.54
2019-01-27T06:52:03.497Z,4.54
2019-01-27T06:53:03.423Z,4.12
2019-01-27T06:54:03.157Z,4.12
2019-01-27T06:55:03.615Z,4.61
2019-01-27T06:56:03.572Z,4.31
2019-01-27T06:57:02.772Z,3.59
2019-01-27T06:58:02.978Z,3.91
2019-01-27T06:59:02.339Z,4.02
2019-01-27T07:00:02.832Z,4.01
2019-01-27T07:01:03.729Z,4.01
2019-01-27T07:02:03.153Z,3.99
2019-01-27T07:03:03.220Z,3.66
2019-01-27T07:04:03.589Z,3.99
2019-01-27T07:05:02.938Z,4.01
2019-01-27T07:06:03.326Z,4.01
2019-01-27T07:07:02.916Z,4.48
2019-01-27T07:08:02.792Z,3.66
2019-01-27T07:09:03.335Z,3.76
2019-01-27T07:10:02.658Z,3.23
2019-01-27T07:11:03.850Z,3.78
2019-01-27T07:12:03.293Z,3.45
2019-01-27T07:13:03.010Z,3.37
2019-01-27T07:14:02.973Z,3.37
2019-01-27T07:15:03.036Z,3.47
2019-01-27T07:16:02.916Z,3.47
2019-01-27T07:17:03.957Z,4.45
2019-01-27T07:18:03.333Z,4.45
2019-01-27T07:19:03.114Z,5.04
2019-01-27T07:20:03.230Z,4.14
2019-01-27T07:21:03.050Z,3.87
2019-01-27T07:22:03.577Z,4.27
2019-01-27T07:23:02.975Z,4.81
2019-01-27T07:24:02.400Z,4.81
2019-01-27T07:25:03.725Z,3.83
2019-01-27T07:26:03.398Z,3.83
2019-01-27T07:27:03.274Z,3.81
2019-01-27T07:28:03.328Z,4.46
2019-01-27T07:29:03.437Z,4.05
2019-01-27T07:30:03.416Z,4.05
2019-01-27T07:31:03.084Z,5.07
2019-01-27T07:32:03.878Z,4.52
2019-01-27T07:33:02.805Z,4.22
2019-01-27T07:34:03.485Z,4.22
2019-01-27T07:35:03.440Z,3.83
2019-01-27T07:36:03.117Z,3.83
2019-01-27T07:37:02.703Z,3.96
2019-01-27T07:38:03.710Z,3.82
2019-01-27T07:39:03.205Z,3.96
2019-01-27T07:40:03.414Z,3.96
2019-01-27T07:41:02.707Z,7.06
2019-01-27T07:42:03.426Z,7.06
2019-01-27T07:43:03.220Z,6.68
2019-01-27T07:44:02.979Z,6.68
2019-01-27T07:45:03.731Z,6.09
2019-01-27T07:46:02.047Z,5.35
2019-01-27T07:47:02.038Z,5.05
2019-01-27T07:48:03.714Z,5.05
2019-01-27T07:49:03.570Z,4.11
2019-01-27T07:50:03.712Z,4.67
2019-01-27T07:51:02.615Z,4.51
2019-01-27T07:52:02.774Z,4.15
2019-01-27T07:53:03.185Z,4.06
2019-01-27T07:54:02.865Z,4.06
2019-01-27T07:55:03.601Z,4.21
2019-01-27T07:56:03.117Z,4.21
2019-01-27T07:57:03.219Z,4.12
2019-01-27T07:58:02.881Z,4.05
2019-01-27T07:59:02.852Z,3.63
2019-01-27T08:00:03.498Z,3.63
2019-01-27T08:01:03.318Z,3.15
2019-01-27T08:02:03.039Z,4.49
2019-01-27T08:03:03.578Z,4.48
2019-01-27T08:04:02.544Z,4.48
2019-01-27T08:05:02.866Z,5.02
2019-01-27T08:06:02.785Z,5.34
2019-01-27T08:07:03.174Z,5.64
2019-01-27T08:08:03.003Z,5.64
2019-01-27T08:09:03.295Z,7.59
2019-01-27T08:10:02.248Z,7.59
2019-01-27T08:11:01.735Z,6.01
2019-01-27T08:12:02.524Z,6.01
2019-01-27T08:13:02.891Z,6.16
2019-01-27T08:14:02.939Z,5.35
2019-01-27T08:15:02.823Z,6.93
2019-01-27T08:16:03.484Z,6.08
2019-01-27T08:17:03.744Z,4.89
2019-01-27T08:18:03.507Z,4.89
2019-01-27T08:19:03.694Z,5.09
2019-01-27T08:20:03.377Z,5.09
2019-01-27T08:21:02.861Z,3.94
2019-01-27T08:22:03.382Z,3.94
2019-01-27T08:23:03.697Z,4.51
2019-01-27T08:24:03.378Z,4.58
2019-01-27T08:25:03.021Z,4.58
2019-01-27T08:26:03.608Z,5.34
2019-01-27T08:27:03.434Z,6.93
2019-01-27T08:28:02.828Z,7.21
2019-01-27T08:29:02.788Z,7.21
2019-01-27T08:30:03.384Z,5.73
2019-01-27T08:31:02.758Z,5.73
2019-01-27T08:32:03.526Z,5.1
2019-01-27T08:33:03.287Z,5.26
2019-01-27T08:34:02.884Z,5.54
2019-01-27T08:35:02.503Z,5.17
2019-01-27T08:36:02.212Z,6.12
2019-01-27T08:37:02.751Z,7.44
2019-01-27T08:38:03.267Z,5.07
2019-01-27T08:39:02.865Z,4.96
2019-01-27T08:40:03.597Z,6.26
2019-01-27T08:41:03.068Z,5.38
2019-01-27T08:42:02.660Z,4.28
2019-01-27T08:43:03.412Z,4.76
2019-01-27T08:44:03.461Z,4.55
2019-01-27T08:45:03.545Z,5.02
2019-01-27T08:46:03.525Z,6.01
2019-01-27T08:47:03.120Z,5.42
2019-01-27T08:48:03.193Z,6.21
2019-01-27T08:49:03.723Z,6.21
2019-01-27T08:50:03.701Z,4.76
2019-01-27T08:51:03.535Z,4.76
2019-01-27T08:52:03.262Z,4.87
2019-01-27T08:53:02.937Z,4.87
2019-01-27T08:54:02.698Z,5.14
2019-01-27T08:55:03.734Z,5.49
2019-01-27T08:56:02.674Z,5.35
2019-01-27T08:57:03.223Z,5.35
2019-01-27T08:58:03.317Z,5.02
2019-01-27T08:59:03.068Z,5.04
2019-01-27T09:00:03.525Z,5.01
2019-01-27T09:01:02.407Z,5.01
2019-01-27T09:02:03.411Z,5.25
2019-01-27T09:03:03.560Z,5.25
2019-01-27T09:04:02.826Z,4.59
2019-01-27T09:05:03.191Z,4.74
2019-01-27T09:06:03.487Z,5.82
2019-01-27T09:07:03.220Z,5.82
2019-01-27T09:08:02.748Z,13.3
2019-01-27T09:09:03.519Z,12.66
2019-01-27T09:10:03.035Z,12.66
2019-01-27T09:11:03.056Z,9.07
2019-01-27T09:12:02.978Z,9.07
2019-01-27T09:13:02.668Z,9.07
2019-01-27T09:14:03.426Z,5.56
2019-01-27T09:15:03.141Z,6.1
2019-01-27T09:16:03.313Z,4.31
2019-01-27T09:17:03.568Z,4.31
2019-01-27T09:18:03.571Z,3.86
2019-01-27T09:19:03.273Z,3.86
2019-01-27T09:20:03.141Z,4.43
2019-01-27T09:21:02.194Z,3.61
2019-01-27T09:22:02.899Z,4.18
2019-01-27T09:23:03.734Z,4.32
2019-01-27T09:24:03.380Z,4.97
2019-01-27T09:25:03.480Z,5.12
2019-01-27T09:26:03.018Z,4.23
2019-01-27T09:27:02.874Z,4.23
2019-01-27T09:28:03.442Z,3.92
2019-01-27T09:29:03.674Z,4.69
2019-01-27T09:30:03.284Z,4.29
2019-01-27T09:31:02.654Z,4.29
2019-01-27T09:32:03.379Z,4.28
2019-01-27T09:33:02.799Z,4.28
2019-01-27T09:34:03.732Z,3.61
2019-01-27T09:36:03.230Z,3.41
2019-01-27T09:37:02.878Z,3.41
2019-01-27T09:38:03.206Z,4.07
2019-01-27T09:39:03.044Z,3.81
2019-01-27T09:40:02.928Z,3.38
2019-01-27T09:41:03.584Z,4.06
2019-01-27T09:42:03.543Z,3.78
2019-01-27T09:43:03.221Z,4.01
2019-01-27T09:44:03.018Z,3.13
2019-01-27T09:45:02.900Z,3.95
2019-01-27T09:46:10.199Z,4.01
2019-01-27T09:47:03.188Z,3.26
2019-01-27T09:48:01.929Z,2.48
2019-01-27T09:49:03.255Z,3.11
2019-01-27T09:50:03.016Z,6.15
2019-01-27T09:51:03.597Z,9.15
2019-01-27T09:52:03.062Z,9.82
2019-01-27T09:53:03.451Z,13.47
2019-01-27T09:54:03.022Z,20.36
2019-01-27T09:55:03.520Z,23.75
2019-01-27T09:56:02.901Z,15.06
2019-01-27T09:57:03.529Z,17.96
2019-01-27T09:58:03.216Z,17.96
2019-01-27T09:59:03.319Z,10.89
2019-01-27T10:00:03.479Z,8.15
2019-01-27T10:01:02.786Z,5.05
2019-01-27T10:02:03.713Z,5.05
2019-01-27T10:03:03.733Z,3.49
2019-01-27T10:04:03.669Z,3.49
2019-01-27T10:05:03.422Z,3.62
2019-01-27T10:06:02.817Z,4.21
2019-01-27T10:07:03.157Z,2.91
2019-01-27T10:08:03.198Z,3.19
2019-01-27T10:09:02.399Z,3.78
2019-01-27T10:10:01.897Z,3.74
2019-01-27T10:11:03.438Z,4.42
2019-01-27T10:12:03.217Z,4.42
2019-01-27T10:13:03.013Z,2.75
2019-01-27T10:14:03.565Z,1.98
2019-01-27T10:15:02.988Z,1.68
2019-01-27T10:16:03.636Z,1.68
2019-01-27T10:17:03.133Z,1.95
2019-01-27T10:18:02.991Z,1.93
2019-01-27T10:19:02.913Z,3.06
2019-01-27T10:20:03.465Z,3.06
2019-01-27T10:21:02.995Z,2.65
2019-01-27T10:22:03.527Z,2.65
2019-01-27T10:23:03.358Z,2.08
2019-01-27T10:24:02.653Z,3.59
2019-01-27T10:25:03.090Z,3
2019-01-27T10:26:02.837Z,3
2019-01-27T10:27:02.901Z,2.21
2019-01-27T10:28:03.591Z,2.21
2019-01-27T10:29:03.561Z,2.87
2019-01-27T10:30:02.969Z,2.59
2019-01-27T10:31:03.179Z,3.42
2019-01-27T10:32:02.634Z,2.9
2019-01-27T10:33:01.691Z,2.78
2019-01-27T10:34:03.358Z,2.91
2019-01-27T10:35:03.553Z,3.36
2019-01-27T10:36:03.281Z,3.36
2019-01-27T10:37:03.171Z,2.78
2019-01-27T10:38:03.571Z,2.47
2019-01-27T10:39:03.466Z,2.61
2019-01-27T10:40:10.235Z,2.61
2019-01-27T10:41:03.264Z,2.26
2019-01-27T10:42:03.396Z,3.65
2019-01-27T10:43:03.203Z,3.27
2019-01-27T10:44:02.996Z,3.27
2019-01-27T10:45:03.199Z,3.58
2019-01-27T10:46:03.463Z,3.98
2019-01-27T10:47:03.322Z,3.98
2019-01-27T10:48:02.923Z,3.04
2019-01-27T10:49:03.296Z,4.27
2019-01-27T10:50:03.368Z,4.27
2019-01-27T10:51:03.286Z,4.65
2019-01-27T10:52:03.031Z,4.65
2019-01-27T10:53:03.024Z,7.47
2019-01-27T10:54:03.441Z,4.14
2019-01-27T10:55:03.394Z,3.62
2019-01-27T10:56:02.592Z,2.81
2019-01-27T10:57:02.777Z,3.01
2019-01-27T10:58:03.083Z,3.37
2019-01-27T10:59:03.762Z,3.09
2019-01-27T11:00:03.518Z,3.35
2019-01-27T11:01:02.604Z,2.64
2019-01-27T11:02:03.275Z,2.69
2019-01-27T11:03:03.009Z,2.42
2019-01-27T11:04:03.516Z,2.42
2019-01-27T11:05:03.435Z,2.35
2019-01-27T11:06:03.109Z,2.72
2019-01-27T11:07:03.492Z,3.45
2019-01-27T11:08:03.417Z,3.45
2019-01-27T11:09:03.766Z,2.92
2019-01-27T11:10:03.563Z,2.92
2019-01-27T11:11:03.426Z,2.88
2019-01-27T11:12:02.930Z,3.2
2019-01-27T11:13:03.616Z,3.31
2019-01-27T11:14:03.370Z,3.31
2019-01-27T11:15:03.136Z,2.85
2019-01-27T11:16:03.394Z,3.53
2019-01-27T11:17:03.403Z,2.75
2019-01-27T11:18:02.719Z,2.94
2019-01-27T11:19:03.306Z,2.67
2019-01-27T11:20:03.668Z,2.64
2019-01-27T11:21:03.083Z,2.96
2019-01-27T11:22:03.489Z,2.39
2019-01-27T11:23:03.244Z,2.69
2019-01-27T11:24:03.664Z,2.68
2019-01-27T11:25:03.014Z,2.12
2019-01-27T11:26:03.312Z,1.7
2019-01-27T11:27:03.356Z,2.01
2019-01-27T11:28:02.971Z,2.01
2019-01-27T11:29:03.547Z,2.31
2019-01-27T11:30:03.342Z,2.31
2019-01-27T11:31:02.855Z,2.45
2019-01-27T11:32:03.821Z,2.45
2019-01-27T11:33:02.732Z,2.14
2019-01-27T11:34:03.563Z,2.14
2019-01-27T11:35:03.408Z,2.58
2019-01-27T11:36:03.383Z,2.47
2019-01-27T11:37:03.595Z,2.22
2019-01-27T11:38:03.101Z,2.22
2019-01-27T11:39:03.209Z,2.6
2019-01-27T11:40:03.338Z,2.69
2019-01-27T11:41:02.839Z,2.69
2019-01-27T11:42:03.407Z,2.48
2019-01-27T11:43:03.501Z,2.79
2019-01-27T11:44:03.024Z,2.22
2019-01-27T11:45:03.517Z,2.27
2019-01-27T11:46:03.390Z,2.27
2019-01-27T11:47:03.586Z,2.62
2019-01-27T11:48:03.095Z,2.54
2019-01-27T11:49:03.651Z,2.55
2019-01-27T11:50:03.501Z,2.55
2019-01-27T11:51:03.014Z,3.3
2019-01-27T11:52:03.729Z,3.3
2019-01-27T11:53:03.532Z,2.78
2019-01-27T11:54:03.397Z,2.78
2019-01-27T11:55:03.374Z,3.46
2019-01-27T11:56:03.665Z,3.46
2019-01-27T11:57:03.061Z,2.51
2019-01-27T11:58:02.892Z,2.51
2019-01-27T11:59:03.445Z,2.45
2019-01-27T12:00:03.088Z,3.44
2019-01-27T12:01:02.880Z,3.82
2019-01-27T12:02:03.220Z,3.56
2019-01-27T12:03:03.109Z,2.7
2019-01-27T12:04:03.239Z,2.7
2019-01-27T12:05:06.259Z,3.19
2019-01-27T12:06:04.509Z,2.4
2019-01-27T12:07:07.507Z,2.4
2019-01-27T12:08:08.865Z,1.79
2019-01-27T12:09:07.542Z,1.74
2019-01-27T12:10:03.239Z,1.73
2019-01-27T12:11:03.051Z,1.61
2019-01-27T12:12:02.862Z,1.61
2019-01-27T12:13:02.783Z,1.58
2019-01-27T12:14:03.342Z,1.85
2019-01-27T12:15:03.019Z,1.76
2019-01-27T12:16:03.411Z,2.12
2019-01-27T12:17:03.110Z,2.12
2019-01-27T12:18:03.671Z,2.19
2019-01-27T12:19:02.992Z,1.94
2019-01-27T12:20:03.624Z,1.85
2019-01-27T12:21:03.058Z,1.85
2019-01-27T12:22:02.962Z,2.4
2019-01-27T12:23:03.310Z,2.22
2019-01-27T12:24:03.111Z,2.23
2019-01-27T12:25:02.775Z,2.32
2019-01-27T12:26:03.211Z,1.83
2019-01-27T12:27:02.703Z,6.46
2019-01-27T12:28:03.328Z,6.46
2019-01-27T12:29:03.754Z,2.79
2019-01-27T12:30:03.319Z,2.04
2019-01-27T12:31:03.655Z,1.57
2019-01-27T12:32:03.053Z,1.65
2019-01-27T12:33:03.132Z,1.79
2019-01-27T12:34:03.024Z,1.92
2019-01-27T12:35:03.442Z,1.86
2019-01-27T12:36:03.115Z,2.21
2019-01-27T12:37:02.854Z,2.21
2019-01-27T12:38:03.526Z,2.2
2019-01-27T12:39:02.977Z,2.41
2019-01-27T12:40:03.330Z,1.95
2019-01-27T12:41:03.209Z,1.95
2019-01-27T12:42:03.230Z,2.34
2019-01-27T12:43:02.758Z,2.34
2019-01-27T12:44:03.520Z,2.33
2019-01-27T12:45:03.601Z,2.09
2019-01-27T12:46:02.831Z,1.86
2019-01-27T12:47:03.538Z,1.86
2019-01-27T12:48:02.986Z,2.51
2019-01-27T12:49:02.789Z,2.77
2019-01-27T12:50:03.182Z,2.38
2019-01-27T12:51:02.766Z,2.38
2019-01-27T12:52:03.058Z,1.87
2019-01-27T12:53:02.941Z,1.87
2019-01-27T12:54:02.690Z,1.74
2019-01-27T12:55:03.282Z,1.74
2019-01-27T12:56:01.819Z,1.99
2019-01-27T12:57:03.530Z,2.73
2019-01-27T12:58:03.170Z,2.83
2019-01-27T12:59:02.740Z,2.96
2019-01-27T13:00:03.231Z,2.33
2019-01-27T13:01:03.638Z,2.87
2019-01-27T13:02:03.452Z,2.61
2019-01-27T13:03:02.828Z,2.71
2019-01-27T13:04:03.146Z,2.94
2019-01-27T13:05:02.888Z,2.94
2019-01-27T13:06:03.264Z,4.34
2019-01-27T13:07:02.829Z,4.34
2019-01-27T13:08:03.031Z,5.31
2019-01-27T13:09:03.795Z,5.31
2019-01-27T13:10:03.745Z,4.14
2019-01-27T13:11:05.941Z,4.14
2019-01-27T13:12:03.054Z,3.46
2019-01-27T13:13:03.597Z,4.82
2019-01-27T13:14:03.562Z,5.31
2019-01-27T13:15:03.311Z,5.31
2019-01-27T13:16:02.909Z,3.96
2019-01-27T13:17:02.197Z,4.21
2019-01-27T13:18:01.882Z,4.53
2019-01-27T13:19:03.524Z,4.53
2019-01-27T13:20:02.148Z,3.81
2019-01-27T13:21:03.349Z,3.93